CheckWX is a tool to help pilots better visualize weather data.  It is not intended as a substitute for an official pre-flight weather briefing.

17:16:03 UTC

KEWB METAR
New Bedford Regional Airport
New Bedford, Massachusetts, USA
Current

23 mins ago

KEWB 191653Z 07009KT 10SM CLR 19/08 A3031 RMK AO2 SLP264 T01890078
Observed
Sep-19 @ 16:53 UTC
Wind
  • 070° at 9 KTS
Visibility
10 SM
Flight Rules
VFR
Cloud Levels
  • Clear skies
Temperature
19°C / 66°F
Dewpoint
C / 46°F
Humidity
49%
Altimeter
30.31" Hg
Pressure
1026.42 hPa
Previous

1 hour ago

KEWB 191553Z 05006KT 10SM CLR 18/08 A3032 RMK AO2 SLP268 T01780078
Observed
Sep-19 @ 15:53 UTC
Wind
  • 050° at 6 KTS
Visibility
10 SM
Flight Rules
VFR
Cloud Levels
  • Clear skies
Temperature
18°C / 64°F
Dewpoint
C / 46°F
Humidity
52%
Altimeter
30.32" Hg
Pressure
1026.72 hPa
Previous

2 hours ago

KEWB 191453Z 01007KT 10SM CLR 17/09 A3033 RMK AO2 SLP270 T01720094 50000
Observed
Sep-19 @ 14:53 UTC
Wind
  • 010° at 7 KTS
Visibility
10 SM
Flight Rules
VFR
Cloud Levels
  • Clear skies
Temperature
17°C / 63°F
Dewpoint
C / 48°F
Humidity
59%
Altimeter
30.33" Hg
Pressure
1027.12 hPa